sensor_id;sensor_type;location;lat;lon;timestamp;temperature;humidity
46336;DHT22;31365;48.858;8.530;2023-12-28T00:00:05;5.30;99.90
46336;DHT22;31365;48.858;8.530;2023-12-28T00:02:34;5.30;99.90
46336;DHT22;31365;48.858;8.530;2023-12-28T00:05:04;5.30;99.90
46336;DHT22;31365;48.858;8.530;2023-12-28T00:07:32;5.30;99.90
46336;DHT22;31365;48.858;8.530;2023-12-28T00:10:03;5.30;99.90
46336;DHT22;31365;48.858;8.530;2023-12-28T00:12:32;5.40;99.90
46336;DHT22;31365;48.858;8.530;2023-12-28T00:15:00;5.40;99.90
46336;DHT22;31365;48.858;8.530;2023-12-28T00:17:28;5.40;99.90
46336;DHT22;31365;48.858;8.530;2023-12-28T00:19:57;5.40;99.90
46336;DHT22;31365;48.858;8.530;2023-12-28T00:22:25;5.40;99.90
46336;DHT22;31365;48.858;8.530;2023-12-28T00:24:53;5.50;99.90
46336;DHT22;31365;48.858;8.530;2023-12-28T00:27:23;5.50;99.90
46336;DHT22;31365;48.858;8.530;2023-12-28T00:29:53;5.50;99.90
46336;DHT22;31365;48.858;8.530;2023-12-28T00:32:21;5.50;99.90
46336;DHT22;31365;48.858;8.530;2023-12-28T00:34:49;5.60;99.90
46336;DHT22;31365;48.858;8.530;2023-12-28T00:37:17;5.60;99.90
46336;DHT22;31365;48.858;8.530;2023-12-28T00:39:46;5.70;99.90
46336;DHT22;31365;48.858;8.530;2023-12-28T00:42:17;5.70;99.90
46336;DHT22;31365;48.858;8.530;2023-12-28T00:44:47;5.70;99.90
46336;DHT22;31365;48.858;8.530;2023-12-28T00:47:16;5.70;99.90
46336;DHT22;31365;48.858;8.530;2023-12-28T00:49:44;5.70;99.90
46336;DHT22;31365;48.858;8.530;2023-12-28T00:52:13;5.70;99.90
46336;DHT22;31365;48.858;8.530;2023-12-28T00:54:41;5.80;99.90
46336;DHT22;31365;48.858;8.530;2023-12-28T00:57:09;5.80;99.90
46336;DHT22;31365;48.858;8.530;2023-12-28T00:59:38;5.80;99.90
46336;DHT22;31365;48.858;8.530;2023-12-28T01:02:07;5.80;99.90
46336;DHT22;31365;48.858;8.530;2023-12-28T01:04:36;5.80;99.90
46336;DHT22;31365;48.858;8.530;2023-12-28T01:07:04;5.90;99.90
46336;DHT22;31365;48.858;8.530;2023-12-28T01:09:33;5.90;99.90
46336;DHT22;31365;48.858;8.530;2023-12-28T01:12:03;5.90;99.90
46336;DHT22;31365;48.858;8.530;2023-12-28T01:14:32;6.00;99.90
46336;DHT22;31365;48.858;8.530;2023-12-28T01:17:01;6.00;99.90
46336;DHT22;31365;48.858;8.530;2023-12-28T01:19:30;6.30;99.90
46336;DHT22;31365;48.858;8.530;2023-12-28T01:21:59;6.70;99.90
46336;DHT22;31365;48.858;8.530;2023-12-28T01:24:27;6.80;99.90
46336;DHT22;31365;48.858;8.530;2023-12-28T01:26:56;6.80;99.90
46336;DHT22;31365;48.858;8.530;2023-12-28T01:29:24;6.80;99.90
46336;DHT22;31365;48.858;8.530;2023-12-28T01:31:53;7.40;99.90
46336;DHT22;31365;48.858;8.530;2023-12-28T01:34:21;7.60;99.90
46336;DHT22;31365;48.858;8.530;2023-12-28T01:36:51;7.70;99.90
46336;DHT22;31365;48.858;8.530;2023-12-28T01:39:19;7.60;99.90
46336;DHT22;31365;48.858;8.530;2023-12-28T01:41:47;7.60;99.90
46336;DHT22;31365;48.858;8.530;2023-12-28T01:44:15;7.70;99.90
46336;DHT22;31365;48.858;8.530;2023-12-28T01:46:45;8.00;99.90
46336;DHT22;31365;48.858;8.530;2023-12-28T01:49:14;8.60;99.90
46336;DHT22;31365;48.858;8.530;2023-12-28T01:51:45;8.80;99.90
46336;DHT22;31365;48.858;8.530;2023-12-28T01:54:15;8.80;99.90
46336;DHT22;31365;48.858;8.530;2023-12-28T01:56:45;8.90;99.90
46336;DHT22;31365;48.858;8.530;2023-12-28T01:59:13;9.20;99.90
46336;DHT22;31365;48.858;8.530;2023-12-28T02:01:42;9.40;99.90
46336;DHT22;31365;48.858;8.530;2023-12-28T02:04:10;9.50;99.90
46336;DHT22;31365;48.858;8.530;2023-12-28T02:06:39;9.70;99.90
46336;DHT22;31365;48.858;8.530;2023-12-28T02:09:08;9.80;99.90
46336;DHT22;31365;48.858;8.530;2023-12-28T02:11:38;9.90;99.90
46336;DHT22;31365;48.858;8.530;2023-12-28T02:14:07;10.00;99.90
46336;DHT22;31365;48.858;8.530;2023-12-28T02:16:40;10.00;99.90
46336;DHT22;31365;48.858;8.530;2023-12-28T02:19:25;10.00;99.90
46336;DHT22;31365;48.858;8.530;2023-12-28T02:21:59;10.00;99.90
46336;DHT22;31365;48.858;8.530;2023-12-28T02:24:30;10.00;99.90
46336;DHT22;31365;48.858;8.530;2023-12-28T02:27:00;10.20;99.90
46336;DHT22;31365;48.858;8.530;2023-12-28T02:29:30;10.40;99.90
46336;DHT22;31365;48.858;8.530;2023-12-28T02:32:01;10.50;99.90
46336;DHT22;31365;48.858;8.530;2023-12-28T02:34:39;10.70;99.90
46336;DHT22;31365;48.858;8.530;2023-12-28T02:37:13;11.00;99.90
46336;DHT22;31365;48.858;8.530;2023-12-28T02:39:46;11.10;99.90
46336;DHT22;31365;48.858;8.530;2023-12-28T02:42:18;11.10;99.90
46336;DHT22;31365;48.858;8.530;2023-12-28T02:44:47;11.10;99.90
46336;DHT22;31365;48.858;8.530;2023-12-28T02:47:15;11.20;99.90
46336;DHT22;31365;48.858;8.530;2023-12-28T02:49:43;11.40;99.90
46336;DHT22;31365;48.858;8.530;2023-12-28T02:52:12;11.40;99.90
46336;DHT22;31365;48.858;8.530;2023-12-28T02:54:40;11.50;99.90
46336;DHT22;31365;48.858;8.530;2023-12-28T02:57:09;11.50;99.90
46336;DHT22;31365;48.858;8.530;2023-12-28T02:59:38;11.50;99.90
46336;DHT22;31365;48.858;8.530;2023-12-28T03:02:07;11.60;99.90
46336;DHT22;31365;48.858;8.530;2023-12-28T03:04:35;11.70;99.90
46336;DHT22;31365;48.858;8.530;2023-12-28T03:07:04;11.70;99.90
46336;DHT22;31365;48.858;8.530;2023-12-28T03:09:34;11.80;99.90
46336;DHT22;31365;48.858;8.530;2023-12-28T03:12:06;11.90;99.90
46336;DHT22;31365;48.858;8.530;2023-12-28T03:14:34;12.10;99.90
46336;DHT22;31365;48.858;8.530;2023-12-28T03:17:05;12.10;99.90
46336;DHT22;31365;48.858;8.530;2023-12-28T03:19:34;12.10;99.90
46336;DHT22;31365;48.858;8.530;2023-12-28T03:22:04;12.10;99.90
46336;DHT22;31365;48.858;8.530;2023-12-28T03:24:33;12.10;99.90
46336;DHT22;31365;48.858;8.530;2023-12-28T03:27:02;12.10;99.90
46336;DHT22;31365;48.858;8.530;2023-12-28T03:29:30;12.20;99.90
46336;DHT22;31365;48.858;8.530;2023-12-28T03:32:00;12.20;99.90
46336;DHT22;31365;48.858;8.530;2023-12-28T03:34:30;12.10;99.90
46336;DHT22;31365;48.858;8.530;2023-12-28T03:37:00;12.10;99.90
46336;DHT22;31365;48.858;8.530;2023-12-28T03:39:29;12.20;99.90
46336;DHT22;31365;48.858;8.530;2023-12-28T03:41:57;12.20;99.90
46336;DHT22;31365;48.858;8.530;2023-12-28T03:44:26;12.10;99.90
46336;DHT22;31365;48.858;8.530;2023-12-28T03:46:54;12.20;99.90
46336;DHT22;31365;48.858;8.530;2023-12-28T03:49:22;12.10;99.90
46336;DHT22;31365;48.858;8.530;2023-12-28T03:51:52;12.10;99.90
46336;DHT22;31365;48.858;8.530;2023-12-28T03:54:21;12.10;99.90
46336;DHT22;31365;48.858;8.530;2023-12-28T03:56:49;12.10;99.90
46336;DHT22;31365;48.858;8.530;2023-12-28T03:59:17;12.10;99.90
46336;DHT22;31365;48.858;8.530;2023-12-28T04:01:45;12.20;99.90
46336;DHT22;31365;48.858;8.530;2023-12-28T04:04:14;12.20;99.90
46336;DHT22;31365;48.858;8.530;2023-12-28T04:06:42;12.20;99.90
46336;DHT22;31365;48.858;8.530;2023-12-28T04:09:13;12.20;99.90
46336;DHT22;31365;48.858;8.530;2023-12-28T04:11:41;12.20;99.90
46336;DHT22;31365;48.858;8.530;2023-12-28T04:14:11;12.20;99.90
46336;DHT22;31365;48.858;8.530;2023-12-28T04:16:40;12.20;99.90
46336;DHT22;31365;48.858;8.530;2023-12-28T04:19:08;12.20;99.90
46336;DHT22;31365;48.858;8.530;2023-12-28T04:21:36;12.20;99.90
46336;DHT22;31365;48.858;8.530;2023-12-28T04:24:05;12.20;99.90
46336;DHT22;31365;48.858;8.530;2023-12-28T04:26:35;12.10;99.90
46336;DHT22;31365;48.858;8.530;2023-12-28T04:29:04;11.90;99.90
46336;DHT22;31365;48.858;8.530;2023-12-28T04:31:39;11.80;99.90
46336;DHT22;31365;48.858;8.530;2023-12-28T04:34:09;11.70;99.90
46336;DHT22;31365;48.858;8.530;2023-12-28T04:36:41;11.60;99.90
46336;DHT22;31365;48.858;8.530;2023-12-28T04:39:10;11.60;99.90
46336;DHT22;31365;48.858;8.530;2023-12-28T04:41:41;11.50;99.90
46336;DHT22;31365;48.858;8.530;2023-12-28T04:44:09;11.40;99.90
46336;DHT22;31365;48.858;8.530;2023-12-28T04:46:38;11.30;99.90
46336;DHT22;31365;48.858;8.530;2023-12-28T04:49:10;11.20;99.90
46336;DHT22;31365;48.858;8.530;2023-12-28T04:51:42;11.20;99.90
46336;DHT22;31365;48.858;8.530;2023-12-28T04:54:11;11.20;99.90
46336;DHT22;31365;48.858;8.530;2023-12-28T04:56:41;11.10;99.90
46336;DHT22;31365;48.858;8.530;2023-12-28T04:59:09;11.10;99.90
46336;DHT22;31365;48.858;8.530;2023-12-28T05:01:41;11.10;99.90
46336;DHT22;31365;48.858;8.530;2023-12-28T05:04:09;11.00;99.90
46336;DHT22;31365;48.858;8.530;2023-12-28T05:06:43;11.00;99.90
46336;DHT22;31365;48.858;8.530;2023-12-28T05:09:13;10.80;99.90
46336;DHT22;31365;48.858;8.530;2023-12-28T05:11:43;10.80;99.90
46336;DHT22;31365;48.858;8.530;2023-12-28T05:14:11;10.70;99.90
46336;DHT22;31365;48.858;8.530;2023-12-28T05:16:40;10.70;99.90
46336;DHT22;31365;48.858;8.530;2023-12-28T05:19:08;10.60;99.90
46336;DHT22;31365;48.858;8.530;2023-12-28T05:21:37;10.60;99.90
46336;DHT22;31365;48.858;8.530;2023-12-28T05:24:05;10.60;99.90
46336;DHT22;31365;48.858;8.530;2023-12-28T05:26:35;10.60;99.90
46336;DHT22;31365;48.858;8.530;2023-12-28T05:29:04;10.50;99.90
46336;DHT22;31365;48.858;8.530;2023-12-28T05:31:33;10.50;99.90
46336;DHT22;31365;48.858;8.530;2023-12-28T05:34:02;10.50;99.90
46336;DHT22;31365;48.858;8.530;2023-12-28T05:36:32;10.60;99.90
46336;DHT22;31365;48.858;8.530;2023-12-28T05:39:01;10.60;99.90
46336;DHT22;31365;48.858;8.530;2023-12-28T05:41:29;10.60;99.90
46336;DHT22;31365;48.858;8.530;2023-12-28T05:43:57;10.70;99.90
46336;DHT22;31365;48.858;8.530;2023-12-28T05:46:27;10.70;99.90
46336;DHT22;31365;48.858;8.530;2023-12-28T05:48:55;10.70;99.90
46336;DHT22;31365;48.858;8.530;2023-12-28T05:51:24;10.80;99.90
46336;DHT22;31365;48.858;8.530;2023-12-28T05:53:53;10.90;99.90
46336;DHT22;31365;48.858;8.530;2023-12-28T05:56:21;10.90;99.90
46336;DHT22;31365;48.858;8.530;2023-12-28T05:58:49;10.90;99.90
46336;DHT22;31365;48.858;8.530;2023-12-28T06:01:17;11.00;99.90
46336;DHT22;31365;48.858;8.530;2023-12-28T06:03:47;10.90;99.90
46336;DHT22;31365;48.858;8.530;2023-12-28T06:06:16;10.80;99.90
46336;DHT22;31365;48.858;8.530;2023-12-28T06:08:45;10.70;99.90
46336;DHT22;31365;48.858;8.530;2023-12-28T06:11:13;10.70;99.90
46336;DHT22;31365;48.858;8.530;2023-12-28T06:13:41;10.60;99.90
46336;DHT22;31365;48.858;8.530;2023-12-28T06:16:09;10.60;99.90
46336;DHT22;31365;48.858;8.530;2023-12-28T06:18:38;10.60;99.90
46336;DHT22;31365;48.858;8.530;2023-12-28T06:21:09;10.60;99.90
46336;DHT22;31365;48.858;8.530;2023-12-28T06:23:37;10.60;99.90
46336;DHT22;31365;48.858;8.530;2023-12-28T06:26:05;10.50;99.90
46336;DHT22;31365;48.858;8.530;2023-12-28T06:28:34;10.50;99.90
46336;DHT22;31365;48.858;8.530;2023-12-28T06:31:03;10.50;99.90
46336;DHT22;31365;48.858;8.530;2023-12-28T06:33:32;10.40;99.90
46336;DHT22;31365;48.858;8.530;2023-12-28T06:36:05;10.30;99.90
46336;DHT22;31365;48.858;8.530;2023-12-28T06:38:36;10.20;99.90
46336;DHT22;31365;48.858;8.530;2023-12-28T06:41:10;10.20;99.90
46336;DHT22;31365;48.858;8.530;2023-12-28T06:43:39;10.10;99.90
46336;DHT22;31365;48.858;8.530;2023-12-28T06:46:07;10.10;99.90
46336;DHT22;31365;48.858;8.530;2023-12-28T06:48:36;10.00;99.90
46336;DHT22;31365;48.858;8.530;2023-12-28T06:51:07;10.00;99.90
46336;DHT22;31365;48.858;8.530;2023-12-28T06:53:36;10.00;99.90
46336;DHT22;31365;48.858;8.530;2023-12-28T06:56:05;10.00;99.90
46336;DHT22;31365;48.858;8.530;2023-12-28T06:58:34;10.00;99.90
46336;DHT22;31365;48.858;8.530;2023-12-28T07:01:03;9.90;99.90
46336;DHT22;31365;48.858;8.530;2023-12-28T07:03:32;9.90;99.90
46336;DHT22;31365;48.858;8.530;2023-12-28T07:06:01;9.90;99.90
46336;DHT22;31365;48.858;8.530;2023-12-28T07:08:30;9.90;99.90
46336;DHT22;31365;48.858;8.530;2023-12-28T07:11:04;9.90;99.90
46336;DHT22;31365;48.858;8.530;2023-12-28T07:13:32;9.90;99.90
46336;DHT22;31365;48.858;8.530;2023-12-28T07:16:01;9.90;99.90
46336;DHT22;31365;48.858;8.530;2023-12-28T07:18:29;9.80;99.90
46336;DHT22;31365;48.858;8.530;2023-12-28T07:20:58;9.80;99.90
46336;DHT22;31365;48.858;8.530;2023-12-28T07:23:27;9.80;99.90
46336;DHT22;31365;48.858;8.530;2023-12-28T07:25:57;9.80;99.90
46336;DHT22;31365;48.858;8.530;2023-12-28T07:28:27;9.80;99.90
46336;DHT22;31365;48.858;8.530;2023-12-28T07:30:55;9.80;99.90
46336;DHT22;31365;48.858;8.530;2023-12-28T07:33:23;9.90;99.90
46336;DHT22;31365;48.858;8.530;2023-12-28T07:35:51;9.90;99.90
46336;DHT22;31365;48.858;8.530;2023-12-28T07:38:19;9.90;99.90
46336;DHT22;31365;48.858;8.530;2023-12-28T07:40:48;9.90;99.90
46336;DHT22;31365;48.858;8.530;2023-12-28T07:43:16;9.80;99.90
46336;DHT22;31365;48.858;8.530;2023-12-28T07:45:46;9.80;99.90
46336;DHT22;31365;48.858;8.530;2023-12-28T07:48:14;9.80;99.90
46336;DHT22;31365;48.858;8.530;2023-12-28T07:50:42;9.80;99.90
46336;DHT22;31365;48.858;8.530;2023-12-28T07:53:11;9.70;99.90
46336;DHT22;31365;48.858;8.530;2023-12-28T07:55:40;9.70;99.90
46336;DHT22;31365;48.858;8.530;2023-12-28T07:58:08;9.70;99.90
46336;DHT22;31365;48.858;8.530;2023-12-28T08:00:36;9.70;99.90
46336;DHT22;31365;48.858;8.530;2023-12-28T08:03:06;9.70;99.90
46336;DHT22;31365;48.858;8.530;2023-12-28T08:05:35;9.70;99.90
46336;DHT22;31365;48.858;8.530;2023-12-28T08:08:04;9.60;99.90
46336;DHT22;31365;48.858;8.530;2023-12-28T08:10:33;9.60;99.90
46336;DHT22;31365;48.858;8.530;2023-12-28T08:13:02;9.50;99.90
46336;DHT22;31365;48.858;8.530;2023-12-28T08:15:30;9.50;99.90
46336;DHT22;31365;48.858;8.530;2023-12-28T08:17:59;9.50;99.90
46336;DHT22;31365;48.858;8.530;2023-12-28T08:20:29;9.50;99.90
46336;DHT22;31365;48.858;8.530;2023-12-28T08:22:57;9.40;99.90
46336;DHT22;31365;48.858;8.530;2023-12-28T08:25:43;9.50;99.90
46336;DHT22;31365;48.858;8.530;2023-12-28T08:28:11;9.50;99.90
46336;DHT22;31365;48.858;8.530;2023-12-28T08:30:40;9.50;99.90
46336;DHT22;31365;48.858;8.530;2023-12-28T08:33:08;9.50;99.90
46336;DHT22;31365;48.858;8.530;2023-12-28T08:35:38;9.50;99.90
46336;DHT22;31365;48.858;8.530;2023-12-28T08:38:06;9.50;99.90
46336;DHT22;31365;48.858;8.530;2023-12-28T08:40:36;9.60;99.90
46336;DHT22;31365;48.858;8.530;2023-12-28T08:43:04;9.60;99.90
46336;DHT22;31365;48.858;8.530;2023-12-28T08:45:33;9.60;99.90
46336;DHT22;31365;48.858;8.530;2023-12-28T08:48:01;9.60;99.90
46336;DHT22;31365;48.858;8.530;2023-12-28T08:50:30;9.60;99.90
46336;DHT22;31365;48.858;8.530;2023-12-28T08:53:00;9.70;99.90
46336;DHT22;31365;48.858;8.530;2023-12-28T08:55:29;9.60;99.90
46336;DHT22;31365;48.858;8.530;2023-12-28T08:57:57;9.70;99.90
46336;DHT22;31365;48.858;8.530;2023-12-28T09:00:25;9.70;99.90
46336;DHT22;31365;48.858;8.530;2023-12-28T09:02:54;9.80;99.90
46336;DHT22;31365;48.858;8.530;2023-12-28T09:05:23;9.80;99.90
46336;DHT22;31365;48.858;8.530;2023-12-28T09:07:51;9.80;99.90
46336;DHT22;31365;48.858;8.530;2023-12-28T09:10:20;9.80;99.90
46336;DHT22;31365;48.858;8.530;2023-12-28T09:12:48;9.90;99.90
46336;DHT22;31365;48.858;8.530;2023-12-28T09:15:17;9.90;99.90
46336;DHT22;31365;48.858;8.530;2023-12-28T09:17:45;9.90;99.90
46336;DHT22;31365;48.858;8.530;2023-12-28T09:20:13;9.90;99.90
46336;DHT22;31365;48.858;8.530;2023-12-28T09:22:42;9.90;99.90
46336;DHT22;31365;48.858;8.530;2023-12-28T09:25:10;9.90;99.90
46336;DHT22;31365;48.858;8.530;2023-12-28T09:27:39;9.90;99.90
46336;DHT22;31365;48.858;8.530;2023-12-28T09:30:09;9.90;99.90
46336;DHT22;31365;48.858;8.530;2023-12-28T09:32:38;9.90;99.90
46336;DHT22;31365;48.858;8.530;2023-12-28T09:35:06;9.80;99.90
46336;DHT22;31365;48.858;8.530;2023-12-28T09:37:34;9.70;99.90
46336;DHT22;31365;48.858;8.530;2023-12-28T09:40:03;9.70;99.90
46336;DHT22;31365;48.858;8.530;2023-12-28T09:42:43;9.70;99.90
46336;DHT22;31365;48.858;8.530;2023-12-28T09:45:18;9.70;99.90
46336;DHT22;31365;48.858;8.530;2023-12-28T09:47:47;9.70;99.90
46336;DHT22;31365;48.858;8.530;2023-12-28T09:50:18;9.70;99.90
46336;DHT22;31365;48.858;8.530;2023-12-28T09:52:46;9.60;99.90
46336;DHT22;31365;48.858;8.530;2023-12-28T09:55:15;9.60;99.90
46336;DHT22;31365;48.858;8.530;2023-12-28T09:57:46;9.60;99.90
46336;DHT22;31365;48.858;8.530;2023-12-28T10:00:15;9.60;99.90
46336;DHT22;31365;48.858;8.530;2023-12-28T10:02:44;9.60;99.90
46336;DHT22;31365;48.858;8.530;2023-12-28T10:05:13;9.60;99.90
46336;DHT22;31365;48.858;8.530;2023-12-28T10:07:42;9.60;99.90
46336;DHT22;31365;48.858;8.530;2023-12-28T10:10:15;9.50;99.90
46336;DHT22;31365;48.858;8.530;2023-12-28T10:12:46;9.60;99.90
46336;DHT22;31365;48.858;8.530;2023-12-28T10:15:14;9.60;99.90
46336;DHT22;31365;48.858;8.530;2023-12-28T10:17:43;9.60;99.90
46336;DHT22;31365;48.858;8.530;2023-12-28T10:20:11;9.70;99.90
46336;DHT22;31365;48.858;8.530;2023-12-28T10:22:39;9.70;99.90
46336;DHT22;31365;48.858;8.530;2023-12-28T10:25:08;9.80;99.90
46336;DHT22;31365;48.858;8.530;2023-12-28T10:27:38;9.90;99.90
46336;DHT22;31365;48.858;8.530;2023-12-28T10:30:11;10.10;99.90
46336;DHT22;31365;48.858;8.530;2023-12-28T10:32:40;10.10;99.90
46336;DHT22;31365;48.858;8.530;2023-12-28T10:35:09;10.20;99.90
46336;DHT22;31365;48.858;8.530;2023-12-28T10:37:39;10.30;99.90
46336;DHT22;31365;48.858;8.530;2023-12-28T10:40:13;10.30;99.90
46336;DHT22;31365;48.858;8.530;2023-12-28T10:42:49;10.30;99.90
46336;DHT22;31365;48.858;8.530;2023-12-28T10:45:24;10.40;99.90
46336;DHT22;31365;48.858;8.530;2023-12-28T10:48:00;10.50;99.90
46336;DHT22;31365;48.858;8.530;2023-12-28T10:50:38;10.50;99.90
46336;DHT22;31365;48.858;8.530;2023-12-28T10:53:21;10.50;99.90
46336;DHT22;31365;48.858;8.530;2023-12-28T10:56:09;10.50;99.90
46336;DHT22;31365;48.858;8.530;2023-12-28T10:58:49;10.50;99.90
46336;DHT22;31365;48.858;8.530;2023-12-28T11:01:27;10.50;99.90
46336;DHT22;31365;48.858;8.530;2023-12-28T11:04:04;10.50;99.90
46336;DHT22;31365;48.858;8.530;2023-12-28T11:06:38;10.40;99.90
46336;DHT22;31365;48.858;8.530;2023-12-28T11:09:09;10.40;99.90
46336;DHT22;31365;48.858;8.530;2023-12-28T11:11:40;10.40;99.90
46336;DHT22;31365;48.858;8.530;2023-12-28T11:14:09;10.40;99.90
46336;DHT22;31365;48.858;8.530;2023-12-28T11:16:40;10.40;99.90
46336;DHT22;31365;48.858;8.530;2023-12-28T11:19:10;10.40;99.90
46336;DHT22;31365;48.858;8.530;2023-12-28T11:21:40;10.40;99.90
46336;DHT22;31365;48.858;8.530;2023-12-28T11:24:10;10.40;99.90
46336;DHT22;31365;48.858;8.530;2023-12-28T11:26:39;10.30;99.90
46336;DHT22;31365;48.858;8.530;2023-12-28T11:29:07;10.30;99.90
46336;DHT22;31365;48.858;8.530;2023-12-28T11:31:37;10.30;99.90
46336;DHT22;31365;48.858;8.530;2023-12-28T11:34:06;10.40;99.90
46336;DHT22;31365;48.858;8.530;2023-12-28T11:36:51;10.40;99.90
46336;DHT22;31365;48.858;8.530;2023-12-28T11:39:29;10.60;99.90
46336;DHT22;31365;48.858;8.530;2023-12-28T11:42:01;10.70;99.90
46336;DHT22;31365;48.858;8.530;2023-12-28T11:44:36;10.90;99.90
46336;DHT22;31365;48.858;8.530;2023-12-28T11:47:12;11.00;99.90
46336;DHT22;31365;48.858;8.530;2023-12-28T11:49:43;11.10;99.90
46336;DHT22;31365;48.858;8.530;2023-12-28T11:52:22;11.10;99.90
46336;DHT22;31365;48.858;8.530;2023-12-28T11:54:52;11.10;99.90
46336;DHT22;31365;48.858;8.530;2023-12-28T11:57:21;11.10;99.90
46336;DHT22;31365;48.858;8.530;2023-12-28T11:59:53;11.10;99.90
46336;DHT22;31365;48.858;8.530;2023-12-28T12:02:23;11.20;99.90
46336;DHT22;31365;48.858;8.530;2023-12-28T12:04:53;11.10;99.90
46336;DHT22;31365;48.858;8.530;2023-12-28T12:07:24;11.20;99.90
46336;DHT22;31365;48.858;8.530;2023-12-28T12:09:55;11.30;99.90
46336;DHT22;31365;48.858;8.530;2023-12-28T12:12:25;11.40;99.90
46336;DHT22;31365;48.858;8.530;2023-12-28T12:14:54;11.40;99.90
46336;DHT22;31365;48.858;8.530;2023-12-28T12:17:24;11.50;99.90
46336;DHT22;31365;48.858;8.530;2023-12-28T12:19:55;11.50;99.90
46336;DHT22;31365;48.858;8.530;2023-12-28T12:22:25;11.40;99.90
46336;DHT22;31365;48.858;8.530;2023-12-28T12:24:56;11.30;99.90
46336;DHT22;31365;48.858;8.530;2023-12-28T12:27:28;11.20;99.90
46336;DHT22;31365;48.858;8.530;2023-12-28T12:29:57;11.10;99.90
46336;DHT22;31365;48.858;8.530;2023-12-28T12:32:25;11.10;99.90
46336;DHT22;31365;48.858;8.530;2023-12-28T12:34:56;11.10;99.90
46336;DHT22;31365;48.858;8.530;2023-12-28T12:37:25;11.10;99.90
46336;DHT22;31365;48.858;8.530;2023-12-28T12:39:53;11.00;99.90
46336;DHT22;31365;48.858;8.530;2023-12-28T12:42:22;10.90;99.90
46336;DHT22;31365;48.858;8.530;2023-12-28T12:44:51;10.70;99.90
46336;DHT22;31365;48.858;8.530;2023-12-28T12:47:19;10.60;99.90
46336;DHT22;31365;48.858;8.530;2023-12-28T12:49:48;10.50;99.90
46336;DHT22;31365;48.858;8.530;2023-12-28T12:52:20;10.40;99.90
46336;DHT22;31365;48.858;8.530;2023-12-28T12:54:53;10.40;99.90
46336;DHT22;31365;48.858;8.530;2023-12-28T12:57:22;10.40;99.90
46336;DHT22;31365;48.858;8.530;2023-12-28T12:59:52;10.40;99.90
46336;DHT22;31365;48.858;8.530;2023-12-28T13:02:22;10.40;99.90
46336;DHT22;31365;48.858;8.530;2023-12-28T13:04:51;10.30;99.90
46336;DHT22;31365;48.858;8.530;2023-12-28T13:07:21;10.30;99.90
46336;DHT22;31365;48.858;8.530;2023-12-28T13:09:50;10.30;99.90
46336;DHT22;31365;48.858;8.530;2023-12-28T13:12:18;10.30;99.90
46336;DHT22;31365;48.858;8.530;2023-12-28T13:14:46;10.30;99.90
46336;DHT22;31365;48.858;8.530;2023-12-28T13:17:14;10.20;99.90
46336;DHT22;31365;48.858;8.530;2023-12-28T13:19:43;10.20;99.90
46336;DHT22;31365;48.858;8.530;2023-12-28T13:22:11;10.20;99.90
46336;DHT22;31365;48.858;8.530;2023-12-28T13:24:41;10.10;99.90
46336;DHT22;31365;48.858;8.530;2023-12-28T13:27:10;10.10;99.90
46336;DHT22;31365;48.858;8.530;2023-12-28T13:29:38;10.10;99.90
46336;DHT22;31365;48.858;8.530;2023-12-28T13:32:06;10.10;99.90
46336;DHT22;31365;48.858;8.530;2023-12-28T13:34:35;10.00;99.90
46336;DHT22;31365;48.858;8.530;2023-12-28T13:37:03;10.00;99.90
46336;DHT22;31365;48.858;8.530;2023-12-28T13:39:32;10.00;99.90
46336;DHT22;31365;48.858;8.530;2023-12-28T13:42:07;9.90;99.90
46336;DHT22;31365;48.858;8.530;2023-12-28T13:44:36;10.00;99.90
46336;DHT22;31365;48.858;8.530;2023-12-28T13:47:05;10.00;99.90
46336;DHT22;31365;48.858;8.530;2023-12-28T13:49:35;9.90;99.90
46336;DHT22;31365;48.858;8.530;2023-12-28T13:52:04;10.00;99.90
46336;DHT22;31365;48.858;8.530;2023-12-28T13:54:33;9.90;99.90
46336;DHT22;31365;48.858;8.530;2023-12-28T13:57:01;9.90;99.90
46336;DHT22;31365;48.858;8.530;2023-12-28T13:59:31;9.90;99.90
46336;DHT22;31365;48.858;8.530;2023-12-28T14:01:59;9.90;99.90
46336;DHT22;31365;48.858;8.530;2023-12-28T14:04:27;10.00;99.90
46336;DHT22;31365;48.858;8.530;2023-12-28T14:06:56;10.00;99.90
46336;DHT22;31365;48.858;8.530;2023-12-28T14:09:24;10.10;99.90
46336;DHT22;31365;48.858;8.530;2023-12-28T14:11:52;10.20;99.90
46336;DHT22;31365;48.858;8.530;2023-12-28T14:14:21;10.20;99.90
46336;DHT22;31365;48.858;8.530;2023-12-28T14:16:51;10.20;99.90
46336;DHT22;31365;48.858;8.530;2023-12-28T14:19:20;10.20;99.90
46336;DHT22;31365;48.858;8.530;2023-12-28T14:21:49;10.10;99.90
46336;DHT22;31365;48.858;8.530;2023-12-28T14:24:18;10.20;99.90
46336;DHT22;31365;48.858;8.530;2023-12-28T14:26:47;10.20;99.90
46336;DHT22;31365;48.858;8.530;2023-12-28T14:29:19;10.20;99.90
46336;DHT22;31365;48.858;8.530;2023-12-28T14:31:48;10.20;99.90
46336;DHT22;31365;48.858;8.530;2023-12-28T14:34:18;10.20;99.90
46336;DHT22;31365;48.858;8.530;2023-12-28T14:36:48;10.10;99.90
46336;DHT22;31365;48.858;8.530;2023-12-28T14:39:20;10.10;99.90
46336;DHT22;31365;48.858;8.530;2023-12-28T14:41:49;10.10;99.90
46336;DHT22;31365;48.858;8.530;2023-12-28T14:44:17;10.10;99.90
46336;DHT22;31365;48.858;8.530;2023-12-28T14:46:45;10.20;99.90
46336;DHT22;31365;48.858;8.530;2023-12-28T14:49:13;10.20;99.90
46336;DHT22;31365;48.858;8.530;2023-12-28T14:51:43;10.20;99.90
46336;DHT22;31365;48.858;8.530;2023-12-28T14:54:12;10.20;99.90
46336;DHT22;31365;48.858;8.530;2023-12-28T14:56:40;10.20;99.90
46336;DHT22;31365;48.858;8.530;2023-12-28T14:59:20;10.20;99.90
46336;DHT22;31365;48.858;8.530;2023-12-28T15:01:49;10.10;99.90
46336;DHT22;31365;48.858;8.530;2023-12-28T15:04:17;10.10;99.90
46336;DHT22;31365;48.858;8.530;2023-12-28T15:06:52;10.10;99.90
46336;DHT22;31365;48.858;8.530;2023-12-28T15:09:21;10.00;99.90
46336;DHT22;31365;48.858;8.530;2023-12-28T15:11:50;10.00;99.90
46336;DHT22;31365;48.858;8.530;2023-12-28T15:14:19;10.00;99.90
46336;DHT22;31365;48.858;8.530;2023-12-28T15:16:48;10.00;99.90
46336;DHT22;31365;48.858;8.530;2023-12-28T15:19:16;9.90;99.90
46336;DHT22;31365;48.858;8.530;2023-12-28T15:21:46;9.90;99.90
46336;DHT22;31365;48.858;8.530;2023-12-28T15:24:17;9.90;99.90
46336;DHT22;31365;48.858;8.530;2023-12-28T15:26:46;9.90;99.90
46336;DHT22;31365;48.858;8.530;2023-12-28T15:29:14;9.90;99.90
46336;DHT22;31365;48.858;8.530;2023-12-28T15:31:43;9.90;99.90
46336;DHT22;31365;48.858;8.530;2023-12-28T15:34:11;9.90;99.90
46336;DHT22;31365;48.858;8.530;2023-12-28T15:36:40;9.90;99.90
46336;DHT22;31365;48.858;8.530;2023-12-28T15:39:08;9.90;99.90
46336;DHT22;31365;48.858;8.530;2023-12-28T15:41:38;9.90;99.90
46336;DHT22;31365;48.858;8.530;2023-12-28T15:44:06;9.90;99.90
46336;DHT22;31365;48.858;8.530;2023-12-28T15:46:34;9.90;99.90
46336;DHT22;31365;48.858;8.530;2023-12-28T15:49:03;9.90;99.90
46336;DHT22;31365;48.858;8.530;2023-12-28T15:51:32;9.90;99.90